createdAt,value
2023-01-27T00:00:15.758Z,101030.47
2023-01-27T00:03:18.433Z,101031.47
2023-01-27T00:06:20.847Z,101020.75
2023-01-27T00:09:23.155Z,101017.63
2023-01-27T00:12:45.385Z,101027.25
2023-01-27T00:15:47.799Z,101027.41
2023-01-27T00:18:50.167Z,101035.72
2023-01-27T00:22:11.400Z,101011.63
2023-01-27T00:25:13.792Z,101031.19
2023-01-27T00:28:23.177Z,101037.94
2023-01-27T00:31:46.008Z,101037.47
2023-01-27T00:34:48.452Z,101041.75
2023-01-27T00:37:50.885Z,101037.69
2023-01-27T00:41:13.360Z,101045.72
2023-01-27T00:44:15.761Z,101043.66
2023-01-27T00:47:18.080Z,101040.88
2023-01-27T00:50:21.094Z,101051.94
2023-01-27T00:53:23.431Z,101046.34
2023-01-27T00:56:28.250Z,101041.47
2023-01-27T00:59:31.887Z,101051.84
2023-01-27T01:02:34.266Z,101050.00
2023-01-27T01:05:37.251Z,101058.88
2023-01-27T01:08:40.102Z,101048.97
2023-01-27T01:11:42.377Z,101043.94
2023-01-27T01:14:44.761Z,101045.34
2023-01-27T01:17:48.425Z,101043.69
2023-01-27T01:20:51.218Z,101040.38
2023-01-27T01:23:53.542Z,101045.34
2023-01-27T01:26:57.154Z,101041.53
2023-01-27T01:30:01.163Z,101025.25
2023-01-27T01:36:27.521Z,101038.13
2023-01-27T01:39:31.260Z,101035.38
2023-01-27T01:42:54.497Z,101033.59
2023-01-27T01:46:01.139Z,101036.09
2023-01-27T01:49:04.618Z,101035.44
2023-01-27T01:52:12.269Z,101042.66
2023-01-27T01:55:14.852Z,101045.41
2023-01-27T01:58:17.962Z,101036.75
2023-01-27T02:01:20.468Z,101040.00
2023-01-27T02:04:27.471Z,101039.53
2023-01-27T02:08:05.593Z,101044.97
2023-01-27T02:11:09.363Z,101033.72
2023-01-27T02:14:15.134Z,101053.59
2023-01-27T02:17:18.082Z,101040.03
2023-01-27T02:20:24.731Z,101055.31
2023-01-27T02:23:48.978Z,101053.81
2023-01-27T02:26:51.696Z,101055.84
2023-01-27T02:29:53.977Z,101040.09
2023-01-27T02:32:56.749Z,101052.31
2023-01-27T02:35:59.410Z,101054.50
2023-01-27T02:39:03.200Z,101049.41
2023-01-27T02:42:07.121Z,101062.38
2023-01-27T02:45:11.550Z,101055.69
2023-01-27T02:48:15.934Z,101049.78
2023-01-27T02:51:18.734Z,101060.38
2023-01-27T02:54:21.236Z,101063.13
2023-01-27T02:57:23.594Z,101069.91
2023-01-27T03:00:45.549Z,101068.03
2023-01-27T03:03:48.499Z,101066.16
2023-01-27T03:06:54.511Z,101077.19
2023-01-27T03:09:57.002Z,101074.22
2023-01-27T03:12:59.400Z,101075.41
2023-01-27T03:16:20.864Z,101063.50
2023-01-27T03:19:23.832Z,101048.56
2023-01-27T03:22:26.509Z,101056.91
2023-01-27T03:25:30.031Z,101068.94
2023-01-27T03:28:32.890Z,101080.16
2023-01-27T03:31:55.797Z,101084.28
2023-01-27T03:34:58.614Z,101074.28
2023-01-27T03:38:31.335Z,101077.16
2023-01-27T03:41:53.198Z,101076.50
2023-01-27T03:45:15.822Z,101080.41
2023-01-27T03:48:21.153Z,101091.91
2023-01-27T03:51:25.313Z,101094.25
2023-01-27T03:54:27.616Z,101087.25
2023-01-27T03:57:29.943Z,101095.84
2023-01-27T04:00:33.066Z,101101.63
2023-01-27T04:03:54.957Z,101091.81
2023-01-27T04:07:03.012Z,101093.41
2023-01-27T04:10:06.498Z,101089.78
2023-01-27T04:13:09.375Z,101110.09
2023-01-27T04:16:11.984Z,101092.09
2023-01-27T04:19:14.700Z,101109.06
2023-01-27T04:22:17.668Z,101102.50
2023-01-27T04:25:20.182Z,101120.19
2023-01-27T04:28:41.764Z,101119.53
2023-01-27T04:31:46.268Z,101122.75
2023-01-27T04:34:48.749Z,101121.00
2023-01-27T04:37:51.222Z,101142.22
2023-01-27T04:40:53.736Z,101141.75
2023-01-27T04:43:56.056Z,101135.34
2023-01-27T04:46:58.672Z,101130.13
2023-01-27T04:50:00.969Z,101145.69
2023-01-27T04:53:03.288Z,101147.34
2023-01-27T04:56:08.124Z,101146.53
2023-01-27T04:59:15.764Z,101157.09
2023-01-27T05:02:18.063Z,101155.41
2023-01-27T05:05:20.396Z,101168.81
2023-01-27T05:08:22.723Z,101166.50
2023-01-27T05:11:25.113Z,101145.03
2023-01-27T05:14:27.555Z,101170.94
2023-01-27T05:17:33.555Z,101159.41
2023-01-27T05:20:35.807Z,101169.56
2023-01-27T05:23:38.220Z,101156.81
2023-01-27T05:26:40.979Z,101145.53
2023-01-27T05:29:43.274Z,101165.22
2023-01-27T05:32:45.551Z,101162.72
2023-01-27T05:35:47.824Z,101170.31
2023-01-27T05:38:50.576Z,101160.97
2023-01-27T05:41:52.864Z,101170.09
2023-01-27T05:44:55.126Z,101166.88
2023-01-27T05:47:57.551Z,101181.88
2023-01-27T05:51:00.306Z,101177.06
2023-01-27T05:54:02.953Z,101184.28
2023-01-27T05:57:05.259Z,101184.75
2023-01-27T06:00:08.341Z,101109.47
2023-01-27T06:03:10.679Z,101199.16
2023-01-27T06:06:14.115Z,101200.00
2023-01-27T06:09:16.559Z,101200.28
2023-01-27T06:12:18.894Z,101199.25
2023-01-27T06:15:21.301Z,101203.13
2023-01-27T06:18:24.588Z,101207.88
2023-01-27T06:21:27.163Z,101214.97
2023-01-27T06:24:29.853Z,101197.03
2023-01-27T06:27:32.144Z,101214.69
2023-01-27T06:30:35.839Z,101222.94
2023-01-27T06:33:38.386Z,101220.72
2023-01-27T06:36:40.792Z,101223.88
2023-01-27T06:39:43.289Z,101216.53
2023-01-27T06:42:45.635Z,101234.28
2023-01-27T06:45:50.644Z,101229.38
2023-01-27T06:48:53.018Z,101232.72
2023-01-27T06:51:55.279Z,101226.00
2023-01-27T06:54:57.898Z,101239.69
2023-01-27T06:58:02.644Z,101229.22
2023-01-27T07:01:06.998Z,101238.81
2023-01-27T07:04:09.617Z,101244.78
2023-01-27T07:07:12.142Z,101252.38
2023-01-27T07:10:14.858Z,101251.41
2023-01-27T07:13:18.864Z,101249.22
2023-01-27T07:16:21.246Z,101259.66
2023-01-27T07:19:23.665Z,101248.84
2023-01-27T07:22:26.486Z,101258.00
2023-01-27T07:25:29.765Z,101255.88
2023-01-27T07:28:32.225Z,101254.28
2023-01-27T07:31:34.874Z,101261.03
2023-01-27T07:34:37.258Z,101260.22
2023-01-27T07:37:39.589Z,101259.44
2023-01-27T07:40:42.146Z,101259.16
2023-01-27T07:43:44.612Z,101255.81
2023-01-27T07:46:46.990Z,101269.47
2023-01-27T07:49:49.725Z,101257.41
2023-01-27T07:52:52.332Z,101274.06
2023-01-27T07:55:54.863Z,101273.00
2023-01-27T07:58:57.584Z,101283.44
2023-01-27T08:02:00.149Z,101283.06
2023-01-27T08:05:02.548Z,101281.47
2023-01-27T08:08:05.090Z,101276.44
2023-01-27T08:11:09.166Z,101280.13
2023-01-27T08:14:11.663Z,101289.56
2023-01-27T08:17:14.048Z,101288.84
2023-01-27T08:20:17.629Z,101299.41
2023-01-27T08:23:20.097Z,101286.53
2023-01-27T08:26:22.457Z,101302.22
2023-01-27T08:29:24.969Z,101306.94
2023-01-27T08:32:27.423Z,101285.25
2023-01-27T08:35:30.213Z,101304.81
2023-01-27T08:38:34.587Z,101299.44
2023-01-27T08:41:37.298Z,101313.16
2023-01-27T08:44:39.726Z,101313.44
2023-01-27T08:47:42.264Z,101309.63
2023-01-27T08:50:45.082Z,101317.81
2023-01-27T08:53:47.855Z,101299.00
2023-01-27T08:56:50.549Z,101320.75
2023-01-27T08:59:53.238Z,101316.66
2023-01-27T09:02:55.786Z,101330.31
2023-01-27T09:05:58.626Z,101331.78
2023-01-27T09:09:11.824Z,101329.59
2023-01-27T09:12:14.729Z,101337.84
2023-01-27T09:15:17.271Z,101339.41
2023-01-27T09:18:19.927Z,101340.06
2023-01-27T09:21:22.416Z,101341.22
2023-01-27T09:24:24.940Z,101338.19
2023-01-27T09:27:38.838Z,101343.78
2023-01-27T09:30:42.949Z,101343.31
2023-01-27T09:33:45.942Z,101351.44
2023-01-27T09:36:52.787Z,101347.75
2023-01-27T09:39:58.341Z,101333.63
2023-01-27T09:43:30.111Z,101352.75
2023-01-27T09:46:51.023Z,101358.47
2023-01-27T09:50:29.469Z,101358.91
2023-01-27T09:53:44.916Z,101350.72
2023-01-27T09:56:58.851Z,101355.28
2023-01-27T10:00:12.975Z,101356.84
2023-01-27T10:03:31.612Z,101354.56
2023-01-27T10:07:06.163Z,101369.97
2023-01-27T10:10:15.001Z,101365.75
2023-01-27T10:13:31.283Z,101371.84
2023-01-27T10:16:54.250Z,101367.41
2023-01-27T10:20:21.863Z,101370.63
2023-01-27T10:23:39.099Z,101366.47
2023-01-27T10:27:14.617Z,101367.63
2023-01-27T10:30:41.823Z,101363.97
2023-01-27T10:33:46.854Z,101361.34
2023-01-27T10:37:07.706Z,101359.16
2023-01-27T10:40:32.068Z,101360.56
2023-01-27T10:43:38.861Z,101361.19
2023-01-27T10:46:49.990Z,101363.91
2023-01-27T10:49:57.448Z,101366.06
2023-01-27T10:53:04.935Z,101366.88
2023-01-27T10:56:13.920Z,101371.16
2023-01-27T10:59:26.995Z,101365.47
2023-01-27T11:02:43.714Z,101365.72
2023-01-27T11:05:52.317Z,101371.28
2023-01-27T11:09:02.954Z,101358.78
2023-01-27T11:12:10.123Z,101353.41
2023-01-27T11:15:28.414Z,101365.91
2023-01-27T11:18:33.441Z,101370.69
2023-01-27T11:21:35.848Z,101371.06
2023-01-27T11:24:46.702Z,101373.69
2023-01-27T11:27:48.936Z,101376.75
2023-01-27T11:31:37.423Z,101376.47
2023-01-27T11:35:05.108Z,101375.66
2023-01-27T11:38:15.735Z,101370.47
2023-01-27T11:41:19.094Z,101378.59
2023-01-27T11:44:27.194Z,101371.56
2023-01-27T11:47:38.188Z,101385.31
2023-01-27T11:50:42.337Z,101380.78
2023-01-27T11:53:46.012Z,101375.63
2023-01-27T11:56:49.826Z,101378.09
2023-01-27T12:00:02.276Z,101375.03
2023-01-27T12:03:38.292Z,101374.66
2023-01-27T12:07:07.814Z,101380.19
2023-01-27T12:10:36.423Z,101377.28
2023-01-27T12:13:49.101Z,101384.81
2023-01-27T12:16:53.770Z,101374.13
2023-01-27T12:19:59.525Z,101384.91
2023-01-27T12:23:24.691Z,101382.47
2023-01-27T12:26:39.992Z,101380.22
2023-01-27T12:29:47.454Z,101369.78
2023-01-27T12:32:50.489Z,101374.59
2023-01-27T12:35:53.631Z,101370.75
2023-01-27T12:39:01.529Z,101367.59
2023-01-27T12:42:04.382Z,101363.00
2023-01-27T12:45:25.212Z,101372.13
2023-01-27T12:48:31.143Z,101368.50
2023-01-27T12:51:41.460Z,101371.47
2023-01-27T12:54:43.814Z,101365.56
2023-01-27T12:57:46.247Z,101368.97
2023-01-27T13:00:49.200Z,101349.94
2023-01-27T13:03:55.439Z,101366.34
2023-01-27T13:07:03.624Z,101371.13
2023-01-27T13:10:19.628Z,101369.22
2023-01-27T13:13:25.865Z,101380.09
2023-01-27T13:16:30.338Z,101379.25
2023-01-27T13:19:43.652Z,101371.47
2023-01-27T13:22:48.944Z,101392.59
2023-01-27T13:26:09.985Z,101389.72
2023-01-27T13:29:16.674Z,101381.00
2023-01-27T13:32:20.548Z,101395.38
2023-01-27T13:35:27.395Z,101394.81
2023-01-27T13:38:55.887Z,101393.44
2023-01-27T13:42:13.412Z,101394.03
2023-01-27T13:45:28.486Z,101391.44
2023-01-27T13:48:38.328Z,101409.56
2023-01-27T13:51:40.787Z,101413.00
2023-01-27T13:54:43.344Z,101407.50
2023-01-27T13:57:53.072Z,101421.91
2023-01-27T14:01:29.783Z,101421.91
2023-01-27T14:05:10.115Z,101422.13
2023-01-27T14:08:52.894Z,101425.16
2023-01-27T14:12:03.474Z,101422.56
2023-01-27T14:15:27.498Z,101428.03
2023-01-27T14:18:38.725Z,101424.63
2023-01-27T14:21:49.485Z,101434.63
2023-01-27T14:25:18.342Z,101430.34
2023-01-27T14:28:52.993Z,101437.59
2023-01-27T14:32:14.074Z,101434.63
2023-01-27T14:35:50.256Z,101448.53
2023-01-27T14:39:15.864Z,101440.00
2023-01-27T14:42:36.664Z,101436.28
2023-01-27T14:45:41.627Z,101441.00
2023-01-27T14:49:10.867Z,101444.34
2023-01-27T14:52:37.387Z,101443.69
2023-01-27T14:56:05.421Z,101444.97
2023-01-27T14:59:17.401Z,101450.53
2023-01-27T15:02:46.623Z,101445.31
2023-01-27T15:05:55.009Z,101449.78
2023-01-27T15:09:32.481Z,101451.09
2023-01-27T15:12:48.363Z,101455.63
2023-01-27T15:15:59.899Z,101459.38
2023-01-27T15:19:11.621Z,101459.31
2023-01-27T15:22:35.641Z,101459.44
2023-01-27T15:25:41.041Z,101464.97
2023-01-27T15:28:44.994Z,101452.84
2023-01-27T15:32:27.935Z,101466.38
2023-01-27T15:35:36.645Z,101466.91
2023-01-27T15:38:39.221Z,101466.53
2023-01-27T15:42:03.268Z,101485.16
2023-01-27T15:45:05.885Z,101482.03
2023-01-27T15:48:12.648Z,101488.13
2023-01-27T15:51:20.258Z,101478.63
2023-01-27T15:54:29.217Z,101488.72
2023-01-27T15:57:39.677Z,101498.56
2023-01-27T16:00:43.395Z,101508.31
2023-01-27T16:03:48.642Z,101507.50
2023-01-27T16:07:02.429Z,101510.78
2023-01-27T16:10:06.236Z,101497.06
2023-01-27T16:13:29.077Z,101510.81
2023-01-27T16:16:32.443Z,101509.34
2023-01-27T16:19:42.940Z,101505.13
2023-01-27T16:22:48.395Z,101514.56
2023-01-27T16:25:55.819Z,101511.44
2023-01-27T16:29:11.853Z,101514.41
2023-01-27T16:32:19.781Z,101510.09
2023-01-27T16:35:22.565Z,101511.81
2023-01-27T16:38:30.227Z,101506.44
2023-01-27T16:41:38.731Z,101525.72
2023-01-27T16:44:45.039Z,101509.34
2023-01-27T16:48:00.108Z,101532.25
2023-01-27T16:51:13.290Z,101529.06
2023-01-27T16:54:24.146Z,101536.94
2023-01-27T16:57:35.547Z,101536.63
2023-01-27T17:00:39.710Z,101550.50
2023-01-27T17:03:42.923Z,101549.00
2023-01-27T17:06:45.723Z,101552.91
2023-01-27T17:09:53.370Z,101537.00
2023-01-27T17:12:55.778Z,101541.88
2023-01-27T17:15:59.897Z,101533.50
2023-01-27T17:19:07.259Z,101529.97
2023-01-27T17:22:22.907Z,101552.25
2023-01-27T17:25:29.867Z,101551.38
2023-01-27T17:28:32.599Z,101556.44
2023-01-27T17:31:38.830Z,101553.56
2023-01-27T17:34:42.185Z,101560.94
2023-01-27T17:37:44.951Z,101556.44
2023-01-27T17:40:52.991Z,101556.41
2023-01-27T17:44:01.376Z,101564.59
2023-01-27T17:47:04.200Z,101572.47
2023-01-27T17:50:07.281Z,101574.84
2023-01-27T17:53:12.139Z,101578.69
2023-01-27T17:56:21.103Z,101588.56
2023-01-27T17:59:26.718Z,101594.88
2023-01-27T18:02:31.744Z,101595.91
2023-01-27T18:05:34.690Z,101599.22
2023-01-27T18:08:37.220Z,101600.88
2023-01-27T18:11:39.751Z,101582.50
2023-01-27T18:14:42.401Z,101599.41
2023-01-27T18:17:44.833Z,101589.22
2023-01-27T18:20:54.006Z,101597.22
2023-01-27T18:23:58.409Z,101599.78
2023-01-27T18:27:00.822Z,101602.28
2023-01-27T18:30:08.399Z,101597.22
2023-01-27T18:33:12.863Z,101613.44
2023-01-27T18:36:25.868Z,101613.91
2023-01-27T18:39:38.662Z,101613.97
2023-01-27T18:42:41.411Z,101602.75
2023-01-27T18:45:45.195Z,101606.44
2023-01-27T18:48:48.917Z,101615.97
2023-01-27T18:51:51.850Z,101607.75
2023-01-27T18:55:01.227Z,101607.47
2023-01-27T18:58:03.687Z,101608.94
2023-01-27T19:01:11.465Z,101605.44
2023-01-27T19:04:13.960Z,101622.81
2023-01-27T19:07:18.462Z,101591.28
2023-01-27T19:10:25.354Z,101617.91
2023-01-27T19:13:27.774Z,101608.06
2023-01-27T19:16:33.824Z,101612.72
2023-01-27T19:19:36.187Z,101615.50
2023-01-27T19:22:38.828Z,101608.25
2023-01-27T19:25:41.761Z,101620.63
2023-01-27T19:28:44.794Z,101612.91
2023-01-27T19:31:47.141Z,101628.25
2023-01-27T19:34:49.701Z,101616.56
2023-01-27T19:37:52.803Z,101629.59
2023-01-27T19:40:56.137Z,101631.44
2023-01-27T19:43:58.660Z,101625.28
2023-01-27T19:47:01.057Z,101621.44
2023-01-27T19:50:05.162Z,101638.16
2023-01-27T19:53:08.004Z,101631.66
2023-01-27T19:56:18.985Z,101635.53
2023-01-27T19:59:21.566Z,101624.81
2023-01-27T20:02:23.981Z,101614.22
2023-01-27T20:05:28.145Z,101625.59
2023-01-27T20:08:30.763Z,101625.91
2023-01-27T20:11:41.810Z,101633.88
2023-01-27T20:14:44.340Z,101636.00
2023-01-27T20:17:46.888Z,101641.22
2023-01-27T20:20:49.226Z,101641.56
2023-01-27T20:23:52.269Z,101636.38
2023-01-27T20:26:56.529Z,101646.53
2023-01-27T20:29:58.834Z,101648.41
2023-01-27T20:33:03.046Z,101642.69
2023-01-27T20:36:09.753Z,101648.19
2023-01-27T20:39:12.152Z,101652.41
2023-01-27T20:42:14.725Z,101648.38
2023-01-27T20:45:17.814Z,101639.31
2023-01-27T20:48:20.790Z,101650.03
2023-01-27T20:51:23.227Z,101652.03
2023-01-27T20:54:25.591Z,101653.44
2023-01-27T20:57:31.199Z,101659.63
2023-01-27T21:00:33.824Z,101662.63
2023-01-27T21:03:37.002Z,101636.50
2023-01-27T21:06:39.547Z,101647.59
2023-01-27T21:09:41.969Z,101649.75
2023-01-27T21:12:44.610Z,101648.78
2023-01-27T21:15:48.190Z,101637.56
2023-01-27T21:18:50.765Z,101645.56
2023-01-27T21:21:53.181Z,101639.38
2023-01-27T21:24:55.459Z,101640.88
2023-01-27T21:27:57.754Z,101638.88
2023-01-27T21:31:09.130Z,101626.00
2023-01-27T21:34:11.759Z,101636.56
2023-01-27T21:37:14.120Z,101643.56
2023-01-27T21:40:16.608Z,101650.78
2023-01-27T21:43:37.969Z,101631.13
2023-01-27T21:46:40.662Z,101636.38
2023-01-27T21:50:03.109Z,101651.56
2023-01-27T21:53:10.076Z,101634.94
2023-01-27T21:56:12.465Z,101638.34
2023-01-27T21:59:14.848Z,101636.13
2023-01-27T22:02:17.644Z,101623.28
2023-01-27T22:05:20.114Z,101624.19
2023-01-27T22:08:22.519Z,101604.59
2023-01-27T22:11:24.975Z,101635.84
2023-01-27T22:14:29.811Z,101637.28
2023-01-27T22:17:32.283Z,101628.44
2023-01-27T22:20:34.812Z,101620.28
2023-01-27T22:23:37.313Z,101623.47
2023-01-27T22:26:39.977Z,101619.00
2023-01-27T22:29:42.360Z,101619.47
2023-01-27T22:32:49.875Z,101605.91
2023-01-27T22:35:59.846Z,101622.03
2023-01-27T22:39:02.287Z,101619.97
2023-01-27T22:42:05.071Z,101623.19
2023-01-27T22:45:10.939Z,101615.63
2023-01-27T22:48:13.448Z,101609.44
2023-01-27T22:51:16.231Z,101605.22
2023-01-27T22:54:18.698Z,101611.56
2023-01-27T22:57:21.887Z,101603.88
2023-01-27T23:00:24.232Z,101615.25
2023-01-27T23:03:26.877Z,101616.91
2023-01-27T23:06:29.787Z,101614.09
2023-01-27T23:09:32.804Z,101609.72
2023-01-27T23:12:35.322Z,101595.03
2023-01-27T23:15:37.643Z,101610.41
2023-01-27T23:18:40.006Z,101598.22
2023-01-27T23:21:42.747Z,101587.56
2023-01-27T23:24:45.212Z,101600.91
2023-01-27T23:27:47.785Z,101599.59
2023-01-27T23:30:51.073Z,101602.59
2023-01-27T23:33:53.574Z,101584.53
2023-01-27T23:36:56.297Z,101587.16
2023-01-27T23:39:58.990Z,101607.91
2023-01-27T23:43:07.545Z,101600.75
2023-01-27T23:46:09.873Z,101608.25
2023-01-27T23:49:12.859Z,101598.53
2023-01-27T23:52:15.750Z,101592.69
2023-01-27T23:55:18.223Z,101599.66
2023-01-27T23:58:20.716Z,101592.97
